sensor_id;sensor_type;location;lat;lon;timestamp;temperature;humidity
68766;DHT22;55756;45.582;11.484;2023-04-06T00:00:57;10.70;37.80
68766;DHT22;55756;45.582;11.484;2023-04-06T00:03:23;10.60;37.90
68766;DHT22;55756;45.582;11.484;2023-04-06T00:05:49;10.60;38.50
68766;DHT22;55756;45.582;11.484;2023-04-06T00:08:15;10.60;38.80
68766;DHT22;55756;45.582;11.484;2023-04-06T00:10:41;10.50;38.90
68766;DHT22;55756;45.582;11.484;2023-04-06T00:13:07;10.50;39.00
68766;DHT22;55756;45.582;11.484;2023-04-06T00:15:33;10.40;39.50
68766;DHT22;55756;45.582;11.484;2023-04-06T00:17:59;10.30;39.80
68766;DHT22;55756;45.582;11.484;2023-04-06T00:20:25;10.20;39.90
68766;DHT22;55756;45.582;11.484;2023-04-06T00:22:51;10.20;39.90
68766;DHT22;55756;45.582;11.484;2023-04-06T00:25:17;10.30;40.00
68766;DHT22;55756;45.582;11.484;2023-04-06T00:27:42;10.20;40.00
68766;DHT22;55756;45.582;11.484;2023-04-06T00:30:09;10.30;40.00
68766;DHT22;55756;45.582;11.484;2023-04-06T00:32:35;10.30;39.90
68766;DHT22;55756;45.582;11.484;2023-04-06T00:35:05;10.20;39.30
68766;DHT22;55756;45.582;11.484;2023-04-06T00:37:32;10.20;39.60
68766;DHT22;55756;45.582;11.484;2023-04-06T00:39:58;10.10;39.70
68766;DHT22;55756;45.582;11.484;2023-04-06T00:42:24;10.10;40.00
68766;DHT22;55756;45.582;11.484;2023-04-06T00:45:00;10.10;40.10
68766;DHT22;55756;45.582;11.484;2023-04-06T00:47:26;10.00;40.40
68766;DHT22;55756;45.582;11.484;2023-04-06T00:49:53;10.10;40.70
68766;DHT22;55756;45.582;11.484;2023-04-06T00:52:19;10.00;40.80
68766;DHT22;55756;45.582;11.484;2023-04-06T00:54:47;10.00;40.50
68766;DHT22;55756;45.582;11.484;2023-04-06T00:57:14;10.10;40.60
68766;DHT22;55756;45.582;11.484;2023-04-06T00:59:42;10.00;40.70
68766;DHT22;55756;45.582;11.484;2023-04-06T01:02:10;10.00;40.80
68766;DHT22;55756;45.582;11.484;2023-04-06T01:04:43;9.90;40.80
68766;DHT22;55756;45.582;11.484;2023-04-06T01:07:15;9.90;40.80
68766;DHT22;55756;45.582;11.484;2023-04-06T01:09:53;9.90;40.60
68766;DHT22;55756;45.582;11.484;2023-04-06T01:12:24;9.90;40.50
68766;DHT22;55756;45.582;11.484;2023-04-06T01:14:49;9.90;40.40
68766;DHT22;55756;45.582;11.484;2023-04-06T01:17:15;9.80;40.50
68766;DHT22;55756;45.582;11.484;2023-04-06T01:19:42;9.90;40.70
68766;DHT22;55756;45.582;11.484;2023-04-06T01:22:15;9.90;41.00
68766;DHT22;55756;45.582;11.484;2023-04-06T01:24:49;9.90;41.60
68766;DHT22;55756;45.582;11.484;2023-04-06T01:27:35;9.80;42.10
68766;DHT22;55756;45.582;11.484;2023-04-06T01:30:10;9.80;42.70
68766;DHT22;55756;45.582;11.484;2023-04-06T01:32:56;9.70;42.70
68766;DHT22;55756;45.582;11.484;2023-04-06T01:35:34;9.90;42.60
68766;DHT22;55756;45.582;11.484;2023-04-06T01:38:13;9.90;42.60
68766;DHT22;55756;45.582;11.484;2023-04-06T01:40:39;9.90;42.70
68766;DHT22;55756;45.582;11.484;2023-04-06T01:43:05;9.80;42.80
68766;DHT22;55756;45.582;11.484;2023-04-06T01:45:45;9.80;42.50
68766;DHT22;55756;45.582;11.484;2023-04-06T01:48:16;9.70;42.80
68766;DHT22;55756;45.582;11.484;2023-04-06T01:50:43;9.60;43.20
68766;DHT22;55756;45.582;11.484;2023-04-06T01:53:12;9.60;42.90
68766;DHT22;55756;45.582;11.484;2023-04-06T01:55:40;9.60;42.90
68766;DHT22;55756;45.582;11.484;2023-04-06T01:58:21;9.60;43.10
68766;DHT22;55756;45.582;11.484;2023-04-06T02:00:47;9.70;43.00
68766;DHT22;55756;45.582;11.484;2023-04-06T02:03:13;9.70;43.00
68766;DHT22;55756;45.582;11.484;2023-04-06T02:05:40;9.70;42.80
68766;DHT22;55756;45.582;11.484;2023-04-06T02:08:17;9.70;42.90
68766;DHT22;55756;45.582;11.484;2023-04-06T02:10:43;9.70;42.90
68766;DHT22;55756;45.582;11.484;2023-04-06T02:13:18;9.70;42.70
68766;DHT22;55756;45.582;11.484;2023-04-06T02:15:48;9.70;42.70
68766;DHT22;55756;45.582;11.484;2023-04-06T02:18:14;9.70;42.70
68766;DHT22;55756;45.582;11.484;2023-04-06T02:20:40;9.70;42.70
68766;DHT22;55756;45.582;11.484;2023-04-06T02:23:07;9.70;42.70
68766;DHT22;55756;45.582;11.484;2023-04-06T02:25:32;9.60;42.60
68766;DHT22;55756;45.582;11.484;2023-04-06T02:27:58;9.60;42.80
68766;DHT22;55756;45.582;11.484;2023-04-06T02:30:28;9.60;42.70
68766;DHT22;55756;45.582;11.484;2023-04-06T02:32:55;9.60;42.60
68766;DHT22;55756;45.582;11.484;2023-04-06T02:35:21;9.50;42.60
68766;DHT22;55756;45.582;11.484;2023-04-06T02:37:52;9.60;42.50
68766;DHT22;55756;45.582;11.484;2023-04-06T02:40:19;9.60;42.30
68766;DHT22;55756;45.582;11.484;2023-04-06T02:42:45;9.60;42.20
68766;DHT22;55756;45.582;11.484;2023-04-06T02:45:12;9.60;42.00
68766;DHT22;55756;45.582;11.484;2023-04-06T02:47:42;9.60;41.90
68766;DHT22;55756;45.582;11.484;2023-04-06T02:50:09;9.60;41.80
68766;DHT22;55756;45.582;11.484;2023-04-06T02:52:42;9.60;41.80
68766;DHT22;55756;45.582;11.484;2023-04-06T02:55:10;9.60;41.70
68766;DHT22;55756;45.582;11.484;2023-04-06T02:57:36;9.60;41.50
68766;DHT22;55756;45.582;11.484;2023-04-06T03:00:02;9.70;41.30
68766;DHT22;55756;45.582;11.484;2023-04-06T03:02:36;9.70;41.20
68766;DHT22;55756;45.582;11.484;2023-04-06T03:05:07;9.60;41.10
68766;DHT22;55756;45.582;11.484;2023-04-06T03:07:37;9.60;41.30
68766;DHT22;55756;45.582;11.484;2023-04-06T03:10:03;9.60;41.10
68766;DHT22;55756;45.582;11.484;2023-04-06T03:12:31;9.60;41.60
68766;DHT22;55756;45.582;11.484;2023-04-06T03:15:17;9.60;41.80
68766;DHT22;55756;45.582;11.484;2023-04-06T03:17:48;9.60;41.90
68766;DHT22;55756;45.582;11.484;2023-04-06T03:20:39;9.60;42.00
68766;DHT22;55756;45.582;11.484;2023-04-06T03:23:06;9.60;41.80
68766;DHT22;55756;45.582;11.484;2023-04-06T03:25:36;9.60;42.20
68766;DHT22;55756;45.582;11.484;2023-04-06T03:28:05;9.60;43.00
68766;DHT22;55756;45.582;11.484;2023-04-06T03:30:34;9.60;43.10
68766;DHT22;55756;45.582;11.484;2023-04-06T03:33:00;9.60;42.80
68766;DHT22;55756;45.582;11.484;2023-04-06T03:35:29;9.60;42.20
68766;DHT22;55756;45.582;11.484;2023-04-06T03:37:56;9.60;42.40
68766;DHT22;55756;45.582;11.484;2023-04-06T03:40:23;9.60;42.50
68766;DHT22;55756;45.582;11.484;2023-04-06T03:42:49;9.50;42.80
68766;DHT22;55756;45.582;11.484;2023-04-06T03:45:15;9.50;42.90
68766;DHT22;55756;45.582;11.484;2023-04-06T03:47:46;9.50;43.00
68766;DHT22;55756;45.582;11.484;2023-04-06T03:50:13;9.50;43.10
68766;DHT22;55756;45.582;11.484;2023-04-06T03:52:39;9.50;43.30
68766;DHT22;55756;45.582;11.484;2023-04-06T03:55:06;9.50;43.70
68766;DHT22;55756;45.582;11.484;2023-04-06T03:57:32;9.40;43.50
68766;DHT22;55756;45.582;11.484;2023-04-06T03:59:58;9.40;43.90
68766;DHT22;55756;45.582;11.484;2023-04-06T04:02:25;9.40;44.00
68766;DHT22;55756;45.582;11.484;2023-04-06T04:04:51;9.40;44.00
68766;DHT22;55756;45.582;11.484;2023-04-06T04:07:17;9.40;43.80
68766;DHT22;55756;45.582;11.484;2023-04-06T04:09:43;9.50;43.40
68766;DHT22;55756;45.582;11.484;2023-04-06T04:12:10;9.50;42.80
68766;DHT22;55756;45.582;11.484;2023-04-06T04:14:35;9.50;42.90
68766;DHT22;55756;45.582;11.484;2023-04-06T04:17:01;9.40;42.90
68766;DHT22;55756;45.582;11.484;2023-04-06T04:19:27;9.40;42.90
68766;DHT22;55756;45.582;11.484;2023-04-06T04:21:54;9.50;42.80
68766;DHT22;55756;45.582;11.484;2023-04-06T04:24:28;9.50;42.70
68766;DHT22;55756;45.582;11.484;2023-04-06T04:26:54;9.40;42.90
68766;DHT22;55756;45.582;11.484;2023-04-06T04:29:22;9.40;43.10
68766;DHT22;55756;45.582;11.484;2023-04-06T04:31:50;9.40;43.20
68766;DHT22;55756;45.582;11.484;2023-04-06T04:34:18;9.40;43.30
68766;DHT22;55756;45.582;11.484;2023-04-06T04:36:46;9.30;43.60
68766;DHT22;55756;45.582;11.484;2023-04-06T04:39:19;9.30;43.90
68766;DHT22;55756;45.582;11.484;2023-04-06T04:41:50;9.30;43.90
68766;DHT22;55756;45.582;11.484;2023-04-06T04:44:16;9.20;44.10
68766;DHT22;55756;45.582;11.484;2023-04-06T04:46:42;9.20;44.30
68766;DHT22;55756;45.582;11.484;2023-04-06T04:49:09;9.10;44.40
68766;DHT22;55756;45.582;11.484;2023-04-06T04:51:35;9.10;44.30
68766;DHT22;55756;45.582;11.484;2023-04-06T04:54:12;9.10;44.40
68766;DHT22;55756;45.582;11.484;2023-04-06T04:56:39;9.10;44.50
68766;DHT22;55756;45.582;11.484;2023-04-06T04:59:17;9.10;44.60
68766;DHT22;55756;45.582;11.484;2023-04-06T05:01:49;9.10;44.80
68766;DHT22;55756;45.582;11.484;2023-04-06T05:04:15;9.00;44.70
68766;DHT22;55756;45.582;11.484;2023-04-06T05:06:42;9.00;44.90
68766;DHT22;55756;45.582;11.484;2023-04-06T05:09:08;8.90;44.90
68766;DHT22;55756;45.582;11.484;2023-04-06T05:11:35;8.90;44.80
68766;DHT22;55756;45.582;11.484;2023-04-06T05:14:01;9.00;44.80
68766;DHT22;55756;45.582;11.484;2023-04-06T05:16:27;8.90;45.10
68766;DHT22;55756;45.582;11.484;2023-04-06T05:18:53;8.90;45.40
68766;DHT22;55756;45.582;11.484;2023-04-06T05:21:19;8.90;45.50
68766;DHT22;55756;45.582;11.484;2023-04-06T05:24:04;8.90;45.60
68766;DHT22;55756;45.582;11.484;2023-04-06T05:26:31;8.90;45.40
68766;DHT22;55756;45.582;11.484;2023-04-06T05:29:03;8.90;45.40
68766;DHT22;55756;45.582;11.484;2023-04-06T05:31:32;8.90;45.40
68766;DHT22;55756;45.582;11.484;2023-04-06T05:33:58;8.80;45.40
68766;DHT22;55756;45.582;11.484;2023-04-06T05:36:30;8.90;45.30
68766;DHT22;55756;45.582;11.484;2023-04-06T05:38:59;8.90;45.30
68766;DHT22;55756;45.582;11.484;2023-04-06T05:41:45;8.90;45.20
68766;DHT22;55756;45.582;11.484;2023-04-06T05:44:12;8.90;45.10
68766;DHT22;55756;45.582;11.484;2023-04-06T05:46:41;8.90;45.10
68766;DHT22;55756;45.582;11.484;2023-04-06T05:49:12;8.90;45.10
68766;DHT22;55756;45.582;11.484;2023-04-06T05:51:38;8.90;45.00
68766;DHT22;55756;45.582;11.484;2023-04-06T05:54:04;8.90;45.20
68766;DHT22;55756;45.582;11.484;2023-04-06T05:56:31;8.90;45.10
68766;DHT22;55756;45.582;11.484;2023-04-06T05:58:59;8.90;45.20
68766;DHT22;55756;45.582;11.484;2023-04-06T06:01:28;8.90;45.30
68766;DHT22;55756;45.582;11.484;2023-04-06T06:03:54;8.90;45.50
68766;DHT22;55756;45.582;11.484;2023-04-06T06:06:22;9.00;45.30
68766;DHT22;55756;45.582;11.484;2023-04-06T06:09:04;9.00;45.30
68766;DHT22;55756;45.582;11.484;2023-04-06T06:11:32;9.00;45.40
68766;DHT22;55756;45.582;11.484;2023-04-06T06:13:59;9.00;45.60
68766;DHT22;55756;45.582;11.484;2023-04-06T06:16:25;9.00;45.80
68766;DHT22;55756;45.582;11.484;2023-04-06T06:18:51;9.10;45.60
68766;DHT22;55756;45.582;11.484;2023-04-06T06:21:18;9.10;45.60
68766;DHT22;55756;45.582;11.484;2023-04-06T06:23:44;9.10;45.60
68766;DHT22;55756;45.582;11.484;2023-04-06T06:26:15;9.10;45.40
68766;DHT22;55756;45.582;11.484;2023-04-06T06:28:41;9.20;44.90
68766;DHT22;55756;45.582;11.484;2023-04-06T06:31:10;9.20;44.50
68766;DHT22;55756;45.582;11.484;2023-04-06T06:33:36;9.30;44.40
68766;DHT22;55756;45.582;11.484;2023-04-06T06:36:02;9.30;44.40
68766;DHT22;55756;45.582;11.484;2023-04-06T06:38:28;9.40;45.10
68766;DHT22;55756;45.582;11.484;2023-04-06T06:40:54;9.40;45.20
68766;DHT22;55756;45.582;11.484;2023-04-06T06:43:24;9.50;44.90
68766;DHT22;55756;45.582;11.484;2023-04-06T06:46:02;9.60;44.70
68766;DHT22;55756;45.582;11.484;2023-04-06T06:48:27;9.60;44.40
68766;DHT22;55756;45.582;11.484;2023-04-06T06:50:53;9.70;43.70
68766;DHT22;55756;45.582;11.484;2023-04-06T06:53:19;9.70;43.70
68766;DHT22;55756;45.582;11.484;2023-04-06T06:55:45;9.70;43.30
68766;DHT22;55756;45.582;11.484;2023-04-06T06:58:11;9.90;42.70
68766;DHT22;55756;45.582;11.484;2023-04-06T07:00:37;9.90;41.80
68766;DHT22;55756;45.582;11.484;2023-04-06T07:03:04;9.90;42.00
68766;DHT22;55756;45.582;11.484;2023-04-06T07:05:32;10.00;42.30
68766;DHT22;55756;45.582;11.484;2023-04-06T07:07:58;10.10;42.50
68766;DHT22;55756;45.582;11.484;2023-04-06T07:10:25;10.10;42.70
68766;DHT22;55756;45.582;11.484;2023-04-06T07:12:51;10.20;41.80
68766;DHT22;55756;45.582;11.484;2023-04-06T07:15:17;10.20;41.90
68766;DHT22;55756;45.582;11.484;2023-04-06T07:17:45;10.20;41.40
68766;DHT22;55756;45.582;11.484;2023-04-06T07:20:12;10.20;41.30
68766;DHT22;55756;45.582;11.484;2023-04-06T07:22:42;10.30;41.50
68766;DHT22;55756;45.582;11.484;2023-04-06T07:25:10;10.40;41.90
68766;DHT22;55756;45.582;11.484;2023-04-06T07:27:35;10.40;41.80
68766;DHT22;55756;45.582;11.484;2023-04-06T07:30:02;10.50;41.70
68766;DHT22;55756;45.582;11.484;2023-04-06T07:32:28;10.50;41.10
68766;DHT22;55756;45.582;11.484;2023-04-06T07:34:56;10.50;40.90
68766;DHT22;55756;45.582;11.484;2023-04-06T07:37:21;10.60;40.50
68766;DHT22;55756;45.582;11.484;2023-04-06T07:39:47;10.70;39.90
68766;DHT22;55756;45.582;11.484;2023-04-06T07:42:13;10.70;40.30
68766;DHT22;55756;45.582;11.484;2023-04-06T07:44:39;10.80;39.50
68766;DHT22;55756;45.582;11.484;2023-04-06T07:47:05;10.80;39.20
68766;DHT22;55756;45.582;11.484;2023-04-06T07:49:31;10.90;38.80
68766;DHT22;55756;45.582;11.484;2023-04-06T07:51:59;10.90;38.60
68766;DHT22;55756;45.582;11.484;2023-04-06T07:54:26;10.90;38.60
68766;DHT22;55756;45.582;11.484;2023-04-06T07:56:53;10.90;38.30
68766;DHT22;55756;45.582;11.484;2023-04-06T07:59:19;11.00;38.40
68766;DHT22;55756;45.582;11.484;2023-04-06T08:01:44;11.00;38.70
68766;DHT22;55756;45.582;11.484;2023-04-06T08:04:10;11.10;38.70
68766;DHT22;55756;45.582;11.484;2023-04-06T08:06:36;11.10;38.60
68766;DHT22;55756;45.582;11.484;2023-04-06T08:09:02;11.10;38.30
68766;DHT22;55756;45.582;11.484;2023-04-06T08:11:29;11.20;38.20
68766;DHT22;55756;45.582;11.484;2023-04-06T08:13:54;11.20;38.40
68766;DHT22;55756;45.582;11.484;2023-04-06T08:16:23;11.30;38.40
68766;DHT22;55756;45.582;11.484;2023-04-06T08:18:49;11.30;38.20
68766;DHT22;55756;45.582;11.484;2023-04-06T08:21:15;11.30;38.30
68766;DHT22;55756;45.582;11.484;2023-04-06T08:23:40;11.30;38.10
68766;DHT22;55756;45.582;11.484;2023-04-06T08:26:06;11.40;38.30
68766;DHT22;55756;45.582;11.484;2023-04-06T08:28:32;11.40;38.20
68766;DHT22;55756;45.582;11.484;2023-04-06T08:31:06;11.50;38.60
68766;DHT22;55756;45.582;11.484;2023-04-06T08:33:32;11.50;37.50
68766;DHT22;55756;45.582;11.484;2023-04-06T08:36:07;11.60;37.40
68766;DHT22;55756;45.582;11.484;2023-04-06T08:38:33;11.70;36.90
68766;DHT22;55756;45.582;11.484;2023-04-06T08:40:59;11.70;36.60
68766;DHT22;55756;45.582;11.484;2023-04-06T08:43:26;11.70;37.00
68766;DHT22;55756;45.582;11.484;2023-04-06T08:45:52;11.70;37.00
68766;DHT22;55756;45.582;11.484;2023-04-06T08:48:18;11.80;37.50
68766;DHT22;55756;45.582;11.484;2023-04-06T08:50:44;11.80;37.20
68766;DHT22;55756;45.582;11.484;2023-04-06T08:53:11;11.90;37.00
68766;DHT22;55756;45.582;11.484;2023-04-06T08:55:37;11.90;36.70
68766;DHT22;55756;45.582;11.484;2023-04-06T08:58:06;11.80;36.50
68766;DHT22;55756;45.582;11.484;2023-04-06T09:00:37;11.90;37.50
68766;DHT22;55756;45.582;11.484;2023-04-06T09:03:06;11.90;37.10
68766;DHT22;55756;45.582;11.484;2023-04-06T09:05:32;12.00;36.60
68766;DHT22;55756;45.582;11.484;2023-04-06T09:07:58;12.00;36.70
68766;DHT22;55756;45.582;11.484;2023-04-06T09:10:24;12.00;37.20
68766;DHT22;55756;45.582;11.484;2023-04-06T09:12:51;12.10;37.50
68766;DHT22;55756;45.582;11.484;2023-04-06T09:15:21;12.10;37.60
68766;DHT22;55756;45.582;11.484;2023-04-06T09:17:47;12.10;37.30
68766;DHT22;55756;45.582;11.484;2023-04-06T09:20:13;12.10;37.30
68766;DHT22;55756;45.582;11.484;2023-04-06T09:22:39;12.10;37.70
68766;DHT22;55756;45.582;11.484;2023-04-06T09:25:06;12.20;37.70
68766;DHT22;55756;45.582;11.484;2023-04-06T09:27:34;12.20;38.00
68766;DHT22;55756;45.582;11.484;2023-04-06T09:30:18;12.20;37.80
68766;DHT22;55756;45.582;11.484;2023-04-06T09:35:15;12.30;38.10
68766;DHT22;55756;45.582;11.484;2023-04-06T09:37:42;12.40;38.20
68766;DHT22;55756;45.582;11.484;2023-04-06T09:40:08;12.40;37.90
68766;DHT22;55756;45.582;11.484;2023-04-06T09:42:34;12.40;37.50
68766;DHT22;55756;45.582;11.484;2023-04-06T09:45:01;12.40;37.20
68766;DHT22;55756;45.582;11.484;2023-04-06T09:47:27;12.40;37.40
68766;DHT22;55756;45.582;11.484;2023-04-06T09:50:03;12.40;38.10
68766;DHT22;55756;45.582;11.484;2023-04-06T09:52:37;12.50;37.90
68766;DHT22;55756;45.582;11.484;2023-04-06T09:55:05;12.50;36.70
68766;DHT22;55756;45.582;11.484;2023-04-06T10:00:17;12.60;35.60
68766;DHT22;55756;45.582;11.484;2023-04-06T10:08:18;12.60;35.90
68766;DHT22;55756;45.582;11.484;2023-04-06T10:10:44;12.70;35.60
68766;DHT22;55756;45.582;11.484;2023-04-06T10:13:11;12.70;36.00
68766;DHT22;55756;45.582;11.484;2023-04-06T10:15:41;12.70;36.50
68766;DHT22;55756;45.582;11.484;2023-04-06T10:18:08;12.80;36.20
68766;DHT22;55756;45.582;11.484;2023-04-06T10:20:51;12.80;35.80
68766;DHT22;55756;45.582;11.484;2023-04-06T10:25:58;12.90;35.50
68766;DHT22;55756;45.582;11.484;2023-04-06T10:28:25;13.00;35.60
68766;DHT22;55756;45.582;11.484;2023-04-06T10:30:58;13.00;35.70
68766;DHT22;55756;45.582;11.484;2023-04-06T10:33:24;13.00;35.10
68766;DHT22;55756;45.582;11.484;2023-04-06T10:35:50;13.10;35.00
68766;DHT22;55756;45.582;11.484;2023-04-06T10:38:16;13.10;35.20
68766;DHT22;55756;45.582;11.484;2023-04-06T10:40:47;13.20;34.60
68766;DHT22;55756;45.582;11.484;2023-04-06T10:43:22;13.20;34.80
68766;DHT22;55756;45.582;11.484;2023-04-06T10:45:59;13.30;34.90
68766;DHT22;55756;45.582;11.484;2023-04-06T10:51:16;13.30;35.10
68766;DHT22;55756;45.582;11.484;2023-04-06T10:53:44;13.40;35.00
68766;DHT22;55756;45.582;11.484;2023-04-06T10:56:15;13.40;34.10
68766;DHT22;55756;45.582;11.484;2023-04-06T10:58:48;13.40;34.10
68766;DHT22;55756;45.582;11.484;2023-04-06T11:01:15;13.40;34.10
68766;DHT22;55756;45.582;11.484;2023-04-06T11:03:43;13.40;34.20
68766;DHT22;55756;45.582;11.484;2023-04-06T11:06:09;13.40;34.00
68766;DHT22;55756;45.582;11.484;2023-04-06T11:08:35;13.50;34.10
68766;DHT22;55756;45.582;11.484;2023-04-06T11:11:11;13.50;33.40
68766;DHT22;55756;45.582;11.484;2023-04-06T11:13:45;13.50;33.20
68766;DHT22;55756;45.582;11.484;2023-04-06T11:16:22;13.60;33.30
68766;DHT22;55756;45.582;11.484;2023-04-06T11:18:56;13.60;33.00
68766;DHT22;55756;45.582;11.484;2023-04-06T11:21:41;13.60;32.90
68766;DHT22;55756;45.582;11.484;2023-04-06T11:24:10;13.70;33.50
68766;DHT22;55756;45.582;11.484;2023-04-06T11:26:43;13.70;32.90
68766;DHT22;55756;45.582;11.484;2023-04-06T11:29:10;13.80;32.90
68766;DHT22;55756;45.582;11.484;2023-04-06T11:31:41;13.80;32.50
68766;DHT22;55756;45.582;11.484;2023-04-06T11:34:12;13.90;32.60
68766;DHT22;55756;45.582;11.484;2023-04-06T11:36:40;13.90;32.40
68766;DHT22;55756;45.582;11.484;2023-04-06T11:39:07;14.00;32.40
68766;DHT22;55756;45.582;11.484;2023-04-06T11:41:32;14.00;32.60
68766;DHT22;55756;45.582;11.484;2023-04-06T11:44:01;14.00;32.90
68766;DHT22;55756;45.582;11.484;2023-04-06T11:46:28;14.10;32.70
68766;DHT22;55756;45.582;11.484;2023-04-06T11:48:58;14.10;32.80
68766;DHT22;55756;45.582;11.484;2023-04-06T11:51:25;14.10;32.80
68766;DHT22;55756;45.582;11.484;2023-04-06T11:53:52;14.10;32.70
68766;DHT22;55756;45.582;11.484;2023-04-06T11:56:29;14.10;32.60
68766;DHT22;55756;45.582;11.484;2023-04-06T11:58:58;14.10;32.40
68766;DHT22;55756;45.582;11.484;2023-04-06T12:01:27;14.20;33.30
68766;DHT22;55756;45.582;11.484;2023-04-06T12:03:53;14.20;33.40
68766;DHT22;55756;45.582;11.484;2023-04-06T12:06:19;14.30;33.10
68766;DHT22;55756;45.582;11.484;2023-04-06T12:08:45;14.40;33.10
68766;DHT22;55756;45.582;11.484;2023-04-06T12:11:11;14.40;33.20
68766;DHT22;55756;45.582;11.484;2023-04-06T12:13:37;14.40;33.10
68766;DHT22;55756;45.582;11.484;2023-04-06T12:16:03;14.50;33.00
68766;DHT22;55756;45.582;11.484;2023-04-06T12:18:30;14.50;32.70
68766;DHT22;55756;45.582;11.484;2023-04-06T12:20:56;14.60;33.00
68766;DHT22;55756;45.582;11.484;2023-04-06T12:23:21;14.60;33.50
68766;DHT22;55756;45.582;11.484;2023-04-06T12:25:47;14.70;33.00
68766;DHT22;55756;45.582;11.484;2023-04-06T12:28:13;14.70;32.60
68766;DHT22;55756;45.582;11.484;2023-04-06T12:30:39;14.70;32.50
68766;DHT22;55756;45.582;11.484;2023-04-06T12:33:06;14.70;32.40
68766;DHT22;55756;45.582;11.484;2023-04-06T12:35:36;14.80;32.30
68766;DHT22;55756;45.582;11.484;2023-04-06T12:38:02;14.80;32.30
68766;DHT22;55756;45.582;11.484;2023-04-06T12:40:28;14.80;32.40
68766;DHT22;55756;45.582;11.484;2023-04-06T12:42:54;14.90;32.60
68766;DHT22;55756;45.582;11.484;2023-04-06T12:45:20;14.90;32.50
68766;DHT22;55756;45.582;11.484;2023-04-06T12:47:45;14.90;32.70
68766;DHT22;55756;45.582;11.484;2023-04-06T12:50:11;14.90;32.90
68766;DHT22;55756;45.582;11.484;2023-04-06T12:52:37;14.90;32.80
68766;DHT22;55756;45.582;11.484;2023-04-06T12:55:03;15.00;32.70
68766;DHT22;55756;45.582;11.484;2023-04-06T12:57:30;15.00;32.80
68766;DHT22;55756;45.582;11.484;2023-04-06T12:59:57;15.10;33.00
68766;DHT22;55756;45.582;11.484;2023-04-06T13:02:23;15.10;32.90
68766;DHT22;55756;45.582;11.484;2023-04-06T13:04:49;15.10;32.50
68766;DHT22;55756;45.582;11.484;2023-04-06T13:07:15;15.10;32.40
68766;DHT22;55756;45.582;11.484;2023-04-06T13:09:41;15.10;32.30
68766;DHT22;55756;45.582;11.484;2023-04-06T13:12:07;15.20;32.40
68766;DHT22;55756;45.582;11.484;2023-04-06T13:14:33;15.20;32.90
68766;DHT22;55756;45.582;11.484;2023-04-06T13:16:59;15.20;32.70
68766;DHT22;55756;45.582;11.484;2023-04-06T13:19:25;15.20;32.50
68766;DHT22;55756;45.582;11.484;2023-04-06T13:21:52;15.20;32.80
68766;DHT22;55756;45.582;11.484;2023-04-06T13:24:18;15.30;32.80
68766;DHT22;55756;45.582;11.484;2023-04-06T13:26:45;15.30;32.50
68766;DHT22;55756;45.582;11.484;2023-04-06T13:29:10;15.30;32.50
68766;DHT22;55756;45.582;11.484;2023-04-06T13:31:36;15.30;32.40
68766;DHT22;55756;45.582;11.484;2023-04-06T13:34:02;15.40;32.20
68766;DHT22;55756;45.582;11.484;2023-04-06T13:36:28;15.40;32.40
68766;DHT22;55756;45.582;11.484;2023-04-06T13:38:53;15.40;32.40
68766;DHT22;55756;45.582;11.484;2023-04-06T13:41:22;15.40;32.40
68766;DHT22;55756;45.582;11.484;2023-04-06T13:43:48;15.40;32.50
68766;DHT22;55756;45.582;11.484;2023-04-06T13:46:14;15.40;32.70
68766;DHT22;55756;45.582;11.484;2023-04-06T13:48:40;15.50;32.40
68766;DHT22;55756;45.582;11.484;2023-04-06T13:51:12;15.50;32.90
68766;DHT22;55756;45.582;11.484;2023-04-06T13:53:39;15.60;32.90
68766;DHT22;55756;45.582;11.484;2023-04-06T13:56:06;15.60;32.80
68766;DHT22;55756;45.582;11.484;2023-04-06T13:58:33;15.60;32.40
68766;DHT22;55756;45.582;11.484;2023-04-06T14:01:06;15.60;32.30
68766;DHT22;55756;45.582;11.484;2023-04-06T14:03:32;15.70;32.30
68766;DHT22;55756;45.582;11.484;2023-04-06T14:05:59;15.60;32.50
68766;DHT22;55756;45.582;11.484;2023-04-06T14:08:25;15.70;32.60
68766;DHT22;55756;45.582;11.484;2023-04-06T14:10:50;15.70;32.30
68766;DHT22;55756;45.582;11.484;2023-04-06T14:13:16;15.70;32.40
68766;DHT22;55756;45.582;11.484;2023-04-06T14:15:42;15.70;32.40
68766;DHT22;55756;45.582;11.484;2023-04-06T14:18:08;15.70;32.60
68766;DHT22;55756;45.582;11.484;2023-04-06T14:20:34;15.70;32.70
68766;DHT22;55756;45.582;11.484;2023-04-06T14:23:01;15.70;32.80
68766;DHT22;55756;45.582;11.484;2023-04-06T14:25:27;15.70;33.10
68766;DHT22;55756;45.582;11.484;2023-04-06T14:27:53;15.80;32.60
68766;DHT22;55756;45.582;11.484;2023-04-06T14:30:19;15.80;32.90
68766;DHT22;55756;45.582;11.484;2023-04-06T14:32:45;15.80;32.60
68766;DHT22;55756;45.582;11.484;2023-04-06T14:35:11;15.80;32.50
68766;DHT22;55756;45.582;11.484;2023-04-06T14:37:36;15.80;32.50
68766;DHT22;55756;45.582;11.484;2023-04-06T14:40:03;15.80;32.10
68766;DHT22;55756;45.582;11.484;2023-04-06T14:42:29;15.80;32.00
68766;DHT22;55756;45.582;11.484;2023-04-06T14:44:55;15.80;32.00
68766;DHT22;55756;45.582;11.484;2023-04-06T14:47:21;15.90;32.10
68766;DHT22;55756;45.582;11.484;2023-04-06T14:49:51;15.90;32.50
68766;DHT22;55756;45.582;11.484;2023-04-06T14:52:17;15.90;32.30
68766;DHT22;55756;45.582;11.484;2023-04-06T14:54:43;15.90;31.80
68766;DHT22;55756;45.582;11.484;2023-04-06T14:57:09;16.00;31.60
68766;DHT22;55756;45.582;11.484;2023-04-06T14:59:34;16.00;32.00
68766;DHT22;55756;45.582;11.484;2023-04-06T15:02:01;16.00;32.20
68766;DHT22;55756;45.582;11.484;2023-04-06T15:04:29;16.00;32.20
68766;DHT22;55756;45.582;11.484;2023-04-06T15:06:55;16.00;31.90
68766;DHT22;55756;45.582;11.484;2023-04-06T15:09:21;16.00;32.00
68766;DHT22;55756;45.582;11.484;2023-04-06T15:11:47;16.00;32.10
68766;DHT22;55756;45.582;11.484;2023-04-06T15:14:13;16.00;32.60
68766;DHT22;55756;45.582;11.484;2023-04-06T15:16:39;16.00;32.80
68766;DHT22;55756;45.582;11.484;2023-04-06T15:19:05;16.00;32.60
68766;DHT22;55756;45.582;11.484;2023-04-06T15:21:31;16.00;32.70
68766;DHT22;55756;45.582;11.484;2023-04-06T15:23:57;16.00;32.70
68766;DHT22;55756;45.582;11.484;2023-04-06T15:26:23;16.10;32.40
68766;DHT22;55756;45.582;11.484;2023-04-06T15:28:49;16.10;32.50
68766;DHT22;55756;45.582;11.484;2023-04-06T15:31:15;16.10;32.60
68766;DHT22;55756;45.582;11.484;2023-04-06T15:33:42;16.10;32.70
68766;DHT22;55756;45.582;11.484;2023-04-06T15:36:21;16.10;32.60
68766;DHT22;55756;45.582;11.484;2023-04-06T15:38:47;16.10;32.40
68766;DHT22;55756;45.582;11.484;2023-04-06T15:41:13;16.10;32.40
68766;DHT22;55756;45.582;11.484;2023-04-06T15:43:40;16.10;32.60